sensor_id;sensor_type;location;lat;lon;timestamp;pressure;altitude;pressure_sealevel;temperature;humidity
64253;BME280;50592;52.958;-7.470;2023-03-22T00:02:21;97693.34;;;10.26;100.00
64253;BME280;50592;52.958;-7.470;2023-03-22T00:04:53;97697.44;;;10.22;100.00
64253;BME280;50592;52.958;-7.470;2023-03-22T00:07:20;97722.03;;;10.15;100.00
64253;BME280;50592;52.958;-7.470;2023-03-22T00:09:49;97721.84;;;10.17;100.00
64253;BME280;50592;52.958;-7.470;2023-03-22T00:12:16;97728.78;;;10.11;100.00
64253;BME280;50592;52.958;-7.470;2023-03-22T00:14:45;97729.00;;;9.96;100.00
64253;BME280;50592;52.958;-7.470;2023-03-22T00:17:12;97733.72;;;9.80;100.00
64253;BME280;50592;52.958;-7.470;2023-03-22T00:19:42;97741.44;;;9.68;100.00
64253;BME280;50592;52.958;-7.470;2023-03-22T00:22:12;97742.28;;;9.55;100.00
64253;BME280;50592;52.958;-7.470;2023-03-22T00:24:43;97769.88;;;9.39;100.00
64253;BME280;50592;52.958;-7.470;2023-03-22T00:27:10;97762.97;;;9.25;100.00
64253;BME280;50592;52.958;-7.470;2023-03-22T00:29:39;97770.69;;;9.20;100.00
64253;BME280;50592;52.958;-7.470;2023-03-22T00:32:06;97771.25;;;9.08;100.00
64253;BME280;50592;52.958;-7.470;2023-03-22T00:34:34;97763.75;;;8.98;100.00
64253;BME280;50592;52.958;-7.470;2023-03-22T00:37:01;97783.59;;;8.94;100.00
64253;BME280;50592;52.958;-7.470;2023-03-22T00:39:31;97786.25;;;8.94;100.00
64253;BME280;50592;52.958;-7.470;2023-03-22T00:42:03;97790.91;;;8.92;100.00
64253;BME280;50592;52.958;-7.470;2023-03-22T00:44:30;97792.72;;;8.85;100.00
64253;BME280;50592;52.958;-7.470;2023-03-22T00:47:00;97802.84;;;8.88;100.00
64253;BME280;50592;52.958;-7.470;2023-03-22T00:49:27;97801.00;;;8.81;100.00
64253;BME280;50592;52.958;-7.470;2023-03-22T00:51:58;97793.94;;;8.82;100.00
64253;BME280;50592;52.958;-7.470;2023-03-22T00:54:25;97818.81;;;8.73;100.00
64253;BME280;50592;52.958;-7.470;2023-03-22T00:56:54;97804.59;;;8.67;100.00
64253;BME280;50592;52.958;-7.470;2023-03-22T00:59:24;97815.50;;;8.57;100.00
64253;BME280;50592;52.958;-7.470;2023-03-22T01:01:55;97835.97;;;8.55;100.00
64253;BME280;50592;52.958;-7.470;2023-03-22T01:04:26;97847.84;;;8.44;100.00
64253;BME280;50592;52.958;-7.470;2023-03-22T01:06:53;97849.38;;;8.31;100.00
64253;BME280;50592;52.958;-7.470;2023-03-22T01:09:27;97856.22;;;8.26;100.00
64253;BME280;50592;52.958;-7.470;2023-03-22T01:12:00;97837.16;;;8.17;100.00
64253;BME280;50592;52.958;-7.470;2023-03-22T01:14:27;97850.47;;;8.09;100.00
64253;BME280;50592;52.958;-7.470;2023-03-22T01:16:59;97844.97;;;8.03;100.00
64253;BME280;50592;52.958;-7.470;2023-03-22T01:19:29;97845.34;;;8.00;100.00
64253;BME280;50592;52.958;-7.470;2023-03-22T01:21:59;97844.50;;;7.93;100.00
64253;BME280;50592;52.958;-7.470;2023-03-22T01:24:30;97844.06;;;7.89;100.00
64253;BME280;50592;52.958;-7.470;2023-03-22T01:26:57;97846.81;;;7.81;100.00
64253;BME280;50592;52.958;-7.470;2023-03-22T01:29:27;97864.19;;;7.75;100.00
64253;BME280;50592;52.958;-7.470;2023-03-22T01:31:58;97865.75;;;7.69;100.00
64253;BME280;50592;52.958;-7.470;2023-03-22T01:34:29;97874.19;;;7.65;100.00
64253;BME280;50592;52.958;-7.470;2023-03-22T01:36:59;97886.50;;;7.57;100.00
64253;BME280;50592;52.958;-7.470;2023-03-22T01:39:26;97889.88;;;7.51;100.00
64253;BME280;50592;52.958;-7.470;2023-03-22T01:42:01;97892.69;;;7.50;100.00
64253;BME280;50592;52.958;-7.470;2023-03-22T01:44:29;97896.31;;;7.49;100.00
64253;BME280;50592;52.958;-7.470;2023-03-22T01:46:59;97904.16;;;7.42;100.00
64253;BME280;50592;52.958;-7.470;2023-03-22T01:49:33;97911.00;;;7.43;100.00
64253;BME280;50592;52.958;-7.470;2023-03-22T01:52:10;97901.25;;;7.37;100.00
64253;BME280;50592;52.958;-7.470;2023-03-22T01:54:53;97906.88;;;7.34;100.00
64253;BME280;50592;52.958;-7.470;2023-03-22T01:57:41;97919.13;;;7.26;100.00
64253;BME280;50592;52.958;-7.470;2023-03-22T02:00:16;97924.56;;;7.25;100.00
64253;BME280;50592;52.958;-7.470;2023-03-22T02:03:15;97940.69;;;7.22;100.00
64253;BME280;50592;52.958;-7.470;2023-03-22T02:05:48;97934.09;;;7.26;100.00
64253;BME280;50592;52.958;-7.470;2023-03-22T02:08:19;97948.56;;;7.22;100.00
64253;BME280;50592;52.958;-7.470;2023-03-22T02:11:16;97942.91;;;7.18;100.00
64253;BME280;50592;52.958;-7.470;2023-03-22T02:17:13;97955.50;;;7.07;100.00
64253;BME280;50592;52.958;-7.470;2023-03-22T02:25:30;97972.56;;;6.81;100.00
64253;BME280;50592;52.958;-7.470;2023-03-22T02:37:37;97967.28;;;6.51;100.00
64253;BME280;50592;52.958;-7.470;2023-03-22T02:48:13;97986.69;;;6.42;100.00
64253;BME280;50592;52.958;-7.470;2023-03-22T02:50:53;97984.78;;;6.36;100.00
64253;BME280;50592;52.958;-7.470;2023-03-22T02:53:30;97988.78;;;6.31;100.00
64253;BME280;50592;52.958;-7.470;2023-03-22T02:56:13;97989.78;;;6.30;100.00
64253;BME280;50592;52.958;-7.470;2023-03-22T02:58:51;97991.75;;;6.28;100.00
64253;BME280;50592;52.958;-7.470;2023-03-22T03:04:00;97992.66;;;6.20;100.00
64253;BME280;50592;52.958;-7.470;2023-03-22T03:06:33;98006.13;;;6.17;100.00
64253;BME280;50592;52.958;-7.470;2023-03-22T03:09:07;98012.50;;;6.15;100.00
64253;BME280;50592;52.958;-7.470;2023-03-22T03:11:37;98016.97;;;6.14;100.00
64253;BME280;50592;52.958;-7.470;2023-03-22T03:14:18;98003.19;;;6.12;100.00
64253;BME280;50592;52.958;-7.470;2023-03-22T03:19:38;98022.38;;;6.13;100.00
64253;BME280;50592;52.958;-7.470;2023-03-22T03:25:38;98028.91;;;6.17;100.00
64253;BME280;50592;52.958;-7.470;2023-03-22T03:28:30;98021.84;;;6.17;100.00
64253;BME280;50592;52.958;-7.470;2023-03-22T03:33:47;98025.63;;;6.15;100.00
64253;BME280;50592;52.958;-7.470;2023-03-22T03:36:21;98028.41;;;6.13;100.00
64253;BME280;50592;52.958;-7.470;2023-03-22T03:38:53;98022.38;;;6.13;100.00
64253;BME280;50592;52.958;-7.470;2023-03-22T03:41:28;98033.22;;;6.10;100.00
64253;BME280;50592;52.958;-7.470;2023-03-22T03:43:56;98037.00;;;6.07;100.00
64253;BME280;50592;52.958;-7.470;2023-03-22T03:46:26;98053.72;;;6.06;100.00
64253;BME280;50592;52.958;-7.470;2023-03-22T03:48:56;98056.19;;;6.07;100.00
64253;BME280;50592;52.958;-7.470;2023-03-22T03:51:27;98068.94;;;6.11;100.00
64253;BME280;50592;52.958;-7.470;2023-03-22T03:53:57;98071.91;;;6.07;100.00
64253;BME280;50592;52.958;-7.470;2023-03-22T03:56:27;98054.03;;;6.11;100.00
64253;BME280;50592;52.958;-7.470;2023-03-22T03:58:57;98048.97;;;6.10;100.00
64253;BME280;50592;52.958;-7.470;2023-03-22T04:01:24;98053.22;;;6.02;100.00
64253;BME280;50592;52.958;-7.470;2023-03-22T04:04:09;98061.81;;;5.88;100.00
64253;BME280;50592;52.958;-7.470;2023-03-22T04:06:46;98062.53;;;5.81;100.00
64253;BME280;50592;52.958;-7.470;2023-03-22T04:09:19;98064.72;;;5.69;100.00
64253;BME280;50592;52.958;-7.470;2023-03-22T04:11:55;98063.44;;;5.65;100.00
64253;BME280;50592;52.958;-7.470;2023-03-22T04:14:23;98066.09;;;5.57;100.00
64253;BME280;50592;52.958;-7.470;2023-03-22T04:16:54;98063.16;;;5.52;100.00
64253;BME280;50592;52.958;-7.470;2023-03-22T04:19:23;98067.31;;;5.46;100.00
64253;BME280;50592;52.958;-7.470;2023-03-22T04:21:54;98069.25;;;5.44;100.00
64253;BME280;50592;52.958;-7.470;2023-03-22T04:24:24;98074.03;;;5.40;100.00
64253;BME280;50592;52.958;-7.470;2023-03-22T04:26:51;98073.72;;;5.35;100.00
64253;BME280;50592;52.958;-7.470;2023-03-22T04:29:29;98073.91;;;5.33;100.00
64253;BME280;50592;52.958;-7.470;2023-03-22T04:32:10;98077.66;;;5.31;100.00
64253;BME280;50592;52.958;-7.470;2023-03-22T04:34:40;98077.00;;;5.29;100.00
64253;BME280;50592;52.958;-7.470;2023-03-22T04:37:13;98081.28;;;5.30;100.00
64253;BME280;50592;52.958;-7.470;2023-03-22T04:39:52;98075.53;;;5.26;100.00
64253;BME280;50592;52.958;-7.470;2023-03-22T04:42:31;98079.34;;;5.15;100.00
64253;BME280;50592;52.958;-7.470;2023-03-22T04:45:09;98081.81;;;5.08;100.00
64253;BME280;50592;52.958;-7.470;2023-03-22T04:47:37;98081.31;;;5.05;100.00
64253;BME280;50592;52.958;-7.470;2023-03-22T04:50:08;98091.00;;;5.04;100.00
64253;BME280;50592;52.958;-7.470;2023-03-22T04:52:44;98091.00;;;5.04;100.00
64253;BME280;50592;52.958;-7.470;2023-03-22T04:55:11;98091.16;;;5.03;100.00
64253;BME280;50592;52.958;-7.470;2023-03-22T04:57:40;98090.66;;;5.07;100.00
64253;BME280;50592;52.958;-7.470;2023-03-22T05:00:07;98101.13;;;5.07;100.00
64253;BME280;50592;52.958;-7.470;2023-03-22T05:02:37;98102.44;;;5.12;100.00
64253;BME280;50592;52.958;-7.470;2023-03-22T05:05:09;98105.88;;;5.12;100.00
64253;BME280;50592;52.958;-7.470;2023-03-22T05:07:41;98098.16;;;5.19;100.00
64253;BME280;50592;52.958;-7.470;2023-03-22T05:10:11;98097.00;;;5.21;100.00
64253;BME280;50592;52.958;-7.470;2023-03-22T05:12:41;98113.72;;;5.20;100.00
64253;BME280;50592;52.958;-7.470;2023-03-22T05:15:17;98110.44;;;5.18;100.00
64253;BME280;50592;52.958;-7.470;2023-03-22T05:17:45;98108.16;;;5.15;100.00
64253;BME280;50592;52.958;-7.470;2023-03-22T05:20:14;98101.13;;;5.16;100.00
64253;BME280;50592;52.958;-7.470;2023-03-22T05:22:44;98114.22;;;5.16;100.00
64253;BME280;50592;52.958;-7.470;2023-03-22T05:25:19;98112.88;;;5.20;100.00
64253;BME280;50592;52.958;-7.470;2023-03-22T05:27:49;98118.28;;;5.18;100.00
64253;BME280;50592;52.958;-7.470;2023-03-22T05:30:41;98112.41;;;5.16;100.00
64253;BME280;50592;52.958;-7.470;2023-03-22T05:33:34;98107.00;;;5.18;100.00
64253;BME280;50592;52.958;-7.470;2023-03-22T05:36:02;98117.28;;;5.19;100.00
64253;BME280;50592;52.958;-7.470;2023-03-22T05:38:36;98122.19;;;5.22;100.00
64253;BME280;50592;52.958;-7.470;2023-03-22T05:41:05;98108.78;;;5.26;100.00
64253;BME280;50592;52.958;-7.470;2023-03-22T05:43:34;98113.38;;;5.24;100.00
64253;BME280;50592;52.958;-7.470;2023-03-22T05:46:07;98118.28;;;5.27;100.00
64253;BME280;50592;52.958;-7.470;2023-03-22T05:48:47;98125.16;;;5.28;100.00
64253;BME280;50592;52.958;-7.470;2023-03-22T05:51:15;98121.41;;;5.22;100.00
64253;BME280;50592;52.958;-7.470;2023-03-22T05:53:51;98123.53;;;5.18;100.00
64253;BME280;50592;52.958;-7.470;2023-03-22T05:56:23;98114.56;;;5.13;100.00
64253;BME280;50592;52.958;-7.470;2023-03-22T05:59:02;98126.00;;;5.12;100.00
64253;BME280;50592;52.958;-7.470;2023-03-22T06:01:30;98120.59;;;5.05;100.00
64253;BME280;50592;52.958;-7.470;2023-03-22T06:04:15;98121.25;;;5.07;100.00
64253;BME280;50592;52.958;-7.470;2023-03-22T06:06:53;98114.72;;;5.03;100.00
64253;BME280;50592;52.958;-7.470;2023-03-22T06:09:46;98122.09;;;5.07;100.00
64253;BME280;50592;52.958;-7.470;2023-03-22T06:12:17;98121.25;;;5.07;100.00
64253;BME280;50592;52.958;-7.470;2023-03-22T06:14:59;98119.28;;;5.09;100.00
64253;BME280;50592;52.958;-7.470;2023-03-22T06:17:44;98121.59;;;5.04;100.00
64253;BME280;50592;52.958;-7.470;2023-03-22T06:20:19;98115.84;;;5.08;100.00
64253;BME280;50592;52.958;-7.470;2023-03-22T06:22:52;98119.47;;;5.07;100.00
64253;BME280;50592;52.958;-7.470;2023-03-22T06:25:22;98109.47;;;5.11;100.00
64253;BME280;50592;52.958;-7.470;2023-03-22T06:27:49;98113.22;;;5.08;100.00
64253;BME280;50592;52.958;-7.470;2023-03-22T06:30:19;98111.28;;;5.11;100.00
64253;BME280;50592;52.958;-7.470;2023-03-22T06:33:05;98106.38;;;5.07;100.00
64253;BME280;50592;52.958;-7.470;2023-03-22T06:35:38;98109.00;;;5.07;100.00
64253;BME280;50592;52.958;-7.470;2023-03-22T06:38:11;98116.69;;;5.01;100.00
64253;BME280;50592;52.958;-7.470;2023-03-22T06:40:41;98110.00;;;4.98;100.00
64253;BME280;50592;52.958;-7.470;2023-03-22T06:43:11;98104.91;;;4.96;100.00
64253;BME280;50592;52.958;-7.470;2023-03-22T06:45:45;98106.53;;;4.97;100.00
64253;BME280;50592;52.958;-7.470;2023-03-22T06:48:13;98104.09;;;4.96;100.00
64253;BME280;50592;52.958;-7.470;2023-03-22T06:50:56;98093.28;;;4.99;100.00
64253;BME280;50592;52.958;-7.470;2023-03-22T06:53:29;98091.34;;;5.01;100.00
64253;BME280;50592;52.958;-7.470;2023-03-22T06:55:56;98095.06;;;5.07;100.00
64253;BME280;50592;52.958;-7.470;2023-03-22T06:58:26;98090.31;;;5.19;100.00
64253;BME280;50592;52.958;-7.470;2023-03-22T07:00:56;98094.19;;;5.31;100.00
64253;BME280;50592;52.958;-7.470;2023-03-22T07:03:27;98087.13;;;5.40;100.00
64253;BME280;50592;52.958;-7.470;2023-03-22T07:06:06;98082.00;;;5.55;100.00
64253;BME280;50592;52.958;-7.470;2023-03-22T07:08:36;98082.75;;;5.64;100.00
64253;BME280;50592;52.958;-7.470;2023-03-22T07:11:07;98074.53;;;5.76;100.00
64253;BME280;50592;52.958;-7.470;2023-03-22T07:13:34;98072.13;;;5.89;100.00
64253;BME280;50592;52.958;-7.470;2023-03-22T07:16:08;98071.09;;;6.07;100.00
64253;BME280;50592;52.958;-7.470;2023-03-22T07:18:47;98080.47;;;6.25;100.00
64253;BME280;50592;52.958;-7.470;2023-03-22T07:21:14;98078.09;;;6.38;100.00
64253;BME280;50592;52.958;-7.470;2023-03-22T07:23:47;98083.31;;;6.62;100.00
64253;BME280;50592;52.958;-7.470;2023-03-22T07:26:17;98077.41;;;6.83;100.00
64253;BME280;50592;52.958;-7.470;2023-03-22T07:28:47;98077.94;;;6.93;100.00
64253;BME280;50592;52.958;-7.470;2023-03-22T07:31:19;98087.00;;;7.06;100.00
64253;BME280;50592;52.958;-7.470;2023-03-22T07:34:03;98082.31;;;7.16;100.00
64253;BME280;50592;52.958;-7.470;2023-03-22T07:36:38;98080.13;;;7.20;100.00
64253;BME280;50592;52.958;-7.470;2023-03-22T07:39:11;98082.03;;;7.26;100.00
64253;BME280;50592;52.958;-7.470;2023-03-22T07:41:42;98083.50;;;7.29;100.00
64253;BME280;50592;52.958;-7.470;2023-03-22T07:44:21;98085.22;;;7.37;100.00
64253;BME280;50592;52.958;-7.470;2023-03-22T07:47:18;98086.09;;;7.44;100.00
64253;BME280;50592;52.958;-7.470;2023-03-22T07:50:08;98085.38;;;7.50;100.00
64253;BME280;50592;52.958;-7.470;2023-03-22T07:52:40;98068.66;;;7.58;100.00
64253;BME280;50592;52.958;-7.470;2023-03-22T07:55:12;98073.03;;;7.66;100.00
64253;BME280;50592;52.958;-7.470;2023-03-22T07:57:43;98074.75;;;7.74;100.00
64253;BME280;50592;52.958;-7.470;2023-03-22T08:00:14;98078.06;;;7.82;100.00
64253;BME280;50592;52.958;-7.470;2023-03-22T08:02:49;98064.72;;;7.84;100.00
64253;BME280;50592;52.958;-7.470;2023-03-22T08:05:33;98065.56;;;7.85;100.00
64253;BME280;50592;52.958;-7.470;2023-03-22T08:08:05;98055.13;;;7.91;100.00
64253;BME280;50592;52.958;-7.470;2023-03-22T08:10:35;98059.38;;;7.92;100.00
64253;BME280;50592;52.958;-7.470;2023-03-22T08:13:06;98053.72;;;7.96;100.00
64253;BME280;50592;52.958;-7.470;2023-03-22T08:15:36;98058.44;;;8.00;100.00
64253;BME280;50592;52.958;-7.470;2023-03-22T08:18:05;98054.19;;;7.99;100.00
64253;BME280;50592;52.958;-7.470;2023-03-22T08:20:37;98048.84;;;7.92;100.00
64253;BME280;50592;52.958;-7.470;2023-03-22T08:23:12;98052.22;;;7.86;100.00
64253;BME280;50592;52.958;-7.470;2023-03-22T08:25:45;98056.38;;;7.80;100.00
64253;BME280;50592;52.958;-7.470;2023-03-22T08:28:14;98053.91;;;7.72;100.00
64253;BME280;50592;52.958;-7.470;2023-03-22T08:30:46;98054.19;;;7.62;100.00
64253;BME280;50592;52.958;-7.470;2023-03-22T08:33:16;98045.56;;;7.53;100.00
64253;BME280;50592;52.958;-7.470;2023-03-22T08:35:50;98044.88;;;7.44;100.00
64253;BME280;50592;52.958;-7.470;2023-03-22T08:38:20;98037.09;;;7.36;100.00
64253;BME280;50592;52.958;-7.470;2023-03-22T08:40:54;98037.16;;;7.28;100.00
64253;BME280;50592;52.958;-7.470;2023-03-22T08:43:23;98038.91;;;7.20;100.00
64253;BME280;50592;52.958;-7.470;2023-03-22T08:45:52;98039.91;;;7.19;100.00
64253;BME280;50592;52.958;-7.470;2023-03-22T08:48:20;98026.78;;;7.19;100.00
64253;BME280;50592;52.958;-7.470;2023-03-22T08:51:02;98031.56;;;7.16;100.00
64253;BME280;50592;52.958;-7.470;2023-03-22T08:53:51;98029.13;;;7.14;100.00
64253;BME280;50592;52.958;-7.470;2023-03-22T08:56:38;98020.59;;;7.12;100.00
64253;BME280;50592;52.958;-7.470;2023-03-22T08:59:26;98027.88;;;7.10;100.00
64253;BME280;50592;52.958;-7.470;2023-03-22T09:02:31;98021.16;;;7.07;100.00
64253;BME280;50592;52.958;-7.470;2023-03-22T09:05:02;98019.81;;;7.12;100.00
64253;BME280;50592;52.958;-7.470;2023-03-22T09:07:30;98023.25;;;7.12;100.00
64253;BME280;50592;52.958;-7.470;2023-03-22T09:10:12;98009.56;;;7.17;100.00
64253;BME280;50592;52.958;-7.470;2023-03-22T09:12:42;98014.00;;;7.16;100.00
64253;BME280;50592;52.958;-7.470;2023-03-22T09:15:10;98008.44;;;7.26;100.00
64253;BME280;50592;52.958;-7.470;2023-03-22T09:17:40;98015.06;;;7.37;100.00
64253;BME280;50592;52.958;-7.470;2023-03-22T09:20:10;98015.50;;;7.56;100.00
64253;BME280;50592;52.958;-7.470;2023-03-22T09:22:42;98018.06;;;7.71;100.00
64253;BME280;50592;52.958;-7.470;2023-03-22T09:25:14;98020.59;;;7.79;100.00
64253;BME280;50592;52.958;-7.470;2023-03-22T09:27:48;98019.19;;;7.84;100.00
64253;BME280;50592;52.958;-7.470;2023-03-22T09:30:18;98020.97;;;7.98;100.00
64253;BME280;50592;52.958;-7.470;2023-03-22T09:32:48;98015.72;;;8.20;100.00
64253;BME280;50592;52.958;-7.470;2023-03-22T09:35:18;98004.34;;;8.41;100.00
64253;BME280;50592;52.958;-7.470;2023-03-22T09:37:56;98009.63;;;8.70;100.00
64253;BME280;50592;52.958;-7.470;2023-03-22T09:40:31;98016.66;;;8.91;100.00
64253;BME280;50592;52.958;-7.470;2023-03-22T09:43:06;98003.16;;;9.08;100.00
64253;BME280;50592;52.958;-7.470;2023-03-22T09:45:41;98014.00;;;9.27;100.00
64253;BME280;50592;52.958;-7.470;2023-03-22T09:48:21;98005.94;;;9.42;100.00
64253;BME280;50592;52.958;-7.470;2023-03-22T09:50:53;97997.63;;;9.45;100.00
64253;BME280;50592;52.958;-7.470;2023-03-22T09:53:26;97998.25;;;9.47;100.00
64253;BME280;50592;52.958;-7.470;2023-03-22T09:56:09;97995.25;;;9.57;100.00
64253;BME280;50592;52.958;-7.470;2023-03-22T10:04:46;98004.00;;;9.78;100.00
64253;BME280;50592;52.958;-7.470;2023-03-22T10:10:14;98000.97;;;9.88;100.00
64253;BME280;50592;52.958;-7.470;2023-03-22T10:13:15;98005.44;;;9.80;100.00
64253;BME280;50592;52.958;-7.470;2023-03-22T10:15:50;98001.97;;;9.73;100.00
64253;BME280;50592;52.958;-7.470;2023-03-22T10:20:58;97987.31;;;9.50;100.00
64253;BME280;50592;52.958;-7.470;2023-03-22T10:23:45;98005.94;;;9.42;100.00
64253;BME280;50592;52.958;-7.470;2023-03-22T10:26:38;97998.44;;;9.39;100.00
64253;BME280;50592;52.958;-7.470;2023-03-22T10:29:43;97993.53;;;9.36;100.00
64253;BME280;50592;52.958;-7.470;2023-03-22T10:32:17;97996.16;;;9.29;100.00
64253;BME280;50592;52.958;-7.470;2023-03-22T10:34:48;98000.16;;;9.18;100.00
64253;BME280;50592;52.958;-7.470;2023-03-22T10:37:23;97996.97;;;9.29;100.00
64253;BME280;50592;52.958;-7.470;2023-03-22T10:39:57;97983.44;;;9.39;100.00
64253;BME280;50592;52.958;-7.470;2023-03-22T10:42:29;97982.44;;;9.47;100.00
64253;BME280;50592;52.958;-7.470;2023-03-22T10:47:34;97968.50;;;9.80;100.00
64253;BME280;50592;52.958;-7.470;2023-03-22T10:50:12;97960.63;;;9.87;100.00
64253;BME280;50592;52.958;-7.470;2023-03-22T10:52:56;97971.34;;;9.79;100.00
64253;BME280;50592;52.958;-7.470;2023-03-22T10:55:24;97974.78;;;9.79;100.00
64253;BME280;50592;52.958;-7.470;2023-03-22T10:58:20;97965.66;;;9.96;100.00
64253;BME280;50592;52.958;-7.470;2023-03-22T11:00:56;97960.41;;;10.23;100.00
64253;BME280;50592;52.958;-7.470;2023-03-22T11:03:28;97964.66;;;10.30;100.00
64253;BME280;50592;52.958;-7.470;2023-03-22T11:06:01;97960.19;;;10.38;100.00
64253;BME280;50592;52.958;-7.470;2023-03-22T11:08:52;97947.19;;;10.36;100.00
64253;BME280;50592;52.958;-7.470;2023-03-22T11:11:34;97959.63;;;10.49;100.00
64253;BME280;50592;52.958;-7.470;2023-03-22T11:17:00;97947.78;;;10.72;100.00
64253;BME280;50592;52.958;-7.470;2023-03-22T11:19:38;97945.75;;;10.67;100.00
64253;BME280;50592;52.958;-7.470;2023-03-22T11:22:34;97930.31;;;10.58;100.00
64253;BME280;50592;52.958;-7.470;2023-03-22T11:25:30;97930.53;;;10.42;100.00
64253;BME280;50592;52.958;-7.470;2023-03-22T11:28:14;97960.19;;;10.51;100.00
64253;BME280;50592;52.958;-7.470;2023-03-22T11:31:13;97949.25;;;10.48;100.00
64253;BME280;50592;52.958;-7.470;2023-03-22T11:34:15;97926.88;;;10.57;100.00
64253;BME280;50592;52.958;-7.470;2023-03-22T11:36:45;97924.00;;;10.65;100.00
64253;BME280;50592;52.958;-7.470;2023-03-22T11:39:24;97923.78;;;10.74;100.00
64253;BME280;50592;52.958;-7.470;2023-03-22T11:41:57;97921.13;;;10.87;100.00
64253;BME280;50592;52.958;-7.470;2023-03-22T11:44:32;97909.56;;;10.75;100.00
64253;BME280;50592;52.958;-7.470;2023-03-22T11:47:03;97923.97;;;10.86;100.00
64253;BME280;50592;52.958;-7.470;2023-03-22T11:49:45;97911.28;;;11.08;100.00
64253;BME280;50592;52.958;-7.470;2023-03-22T11:52:22;97921.31;;;11.32;100.00
64253;BME280;50592;52.958;-7.470;2023-03-22T11:54:54;97917.50;;;11.27;100.00
64253;BME280;50592;52.958;-7.470;2023-03-22T11:57:27;97920.28;;;11.33;100.00
64253;BME280;50592;52.958;-7.470;2023-03-22T12:00:03;97916.28;;;11.23;100.00
64253;BME280;50592;52.958;-7.470;2023-03-22T12:02:56;97915.41;;;11.29;100.00
64253;BME280;50592;52.958;-7.470;2023-03-22T12:05:27;97915.66;;;11.21;100.00
64253;BME280;50592;52.958;-7.470;2023-03-22T12:08:05;97911.81;;;11.24;100.00
64253;BME280;50592;52.958;-7.470;2023-03-22T12:10:41;97915.44;;;11.23;100.00
64253;BME280;50592;52.958;-7.470;2023-03-22T12:16:04;97909.50;;;10.95;100.00
64253;BME280;50592;52.958;-7.470;2023-03-22T12:18:47;97891.19;;;11.00;100.00
64253;BME280;50592;52.958;-7.470;2023-03-22T12:21:19;97892.78;;;11.08;100.00
64253;BME280;50592;52.958;-7.470;2023-03-22T12:23:48;97892.34;;;11.11;100.00
64253;BME280;50592;52.958;-7.470;2023-03-22T12:26:27;97879.91;;;11.12;100.00
64253;BME280;50592;52.958;-7.470;2023-03-22T12:29:01;97882.41;;;11.07;100.00
64253;BME280;50592;52.958;-7.470;2023-03-22T12:31:43;97869.41;;;11.05;100.00
64253;BME280;50592;52.958;-7.470;2023-03-22T12:34:16;97852.53;;;10.99;100.00
64253;BME280;50592;52.958;-7.470;2023-03-22T12:36:52;97857.47;;;10.96;100.00
64253;BME280;50592;52.958;-7.470;2023-03-22T12:41:55;97850.84;;;10.73;100.00
64253;BME280;50592;52.958;-7.470;2023-03-22T12:44:33;97839.22;;;10.81;100.00
64253;BME280;50592;52.958;-7.470;2023-03-22T12:50:24;97819.56;;;11.34;100.00
64253;BME280;50592;52.958;-7.470;2023-03-22T12:52:49;97810.56;;;11.42;100.00
64253;BME280;50592;52.958;-7.470;2023-03-22T12:55:28;97809.56;;;11.43;100.00
64253;BME280;50592;52.958;-7.470;2023-03-22T12:58:00;97818.28;;;11.44;100.00
64253;BME280;50592;52.958;-7.470;2023-03-22T13:05:47;97805.53;;;11.08;100.00
64253;BME280;50592;52.958;-7.470;2023-03-22T13:08:20;97805.06;;;10.86;100.00
64253;BME280;50592;52.958;-7.470;2023-03-22T13:11:01;97792.91;;;10.78;100.00
64253;BME280;50592;52.958;-7.470;2023-03-22T13:13:38;97774.97;;;10.80;100.00
64253;BME280;50592;52.958;-7.470;2023-03-22T13:18:56;97762.09;;;10.97;100.00
64253;BME280;50592;52.958;-7.470;2023-03-22T13:21:27;97762.72;;;10.92;100.00
64253;BME280;50592;52.958;-7.470;2023-03-22T13:26:52;97751.34;;;10.92;100.00
64253;BME280;50592;52.958;-7.470;2023-03-22T13:29:32;97741.34;;;10.94;100.00
64253;BME280;50592;52.958;-7.470;2023-03-22T13:32:06;97735.50;;;10.92;100.00
64253;BME280;50592;52.958;-7.470;2023-03-22T13:34:52;97713.75;;;10.90;100.00
64253;BME280;50592;52.958;-7.470;2023-03-22T13:37:35;97701.56;;;10.89;100.00
64253;BME280;50592;52.958;-7.470;2023-03-22T13:40:25;97688.00;;;10.78;100.00
64253;BME280;50592;52.958;-7.470;2023-03-22T13:43:10;97688.81;;;10.79;100.00
64253;BME280;50592;52.958;-7.470;2023-03-22T14:02:30;97646.28;;;10.62;100.00
64253;BME280;50592;52.958;-7.470;2023-03-22T14:04:59;97633.28;;;10.60;100.00
64253;BME280;50592;52.958;-7.470;2023-03-22T14:07:54;97632.28;;;10.54;100.00
64253;BME280;50592;52.958;-7.470;2023-03-22T14:10:30;97639.63;;;10.52;100.00
64253;BME280;50592;52.958;-7.470;2023-03-22T14:13:32;97634.72;;;10.56;100.00
64253;BME280;50592;52.958;-7.470;2023-03-22T14:16:30;97623.41;;;10.49;100.00
64253;BME280;50592;52.958;-7.470;2023-03-22T14:18:56;97642.94;;;10.34;100.00
64253;BME280;50592;52.958;-7.470;2023-03-22T14:21:30;97640.19;;;10.22;100.00
64253;BME280;50592;52.958;-7.470;2023-03-22T14:24:02;97622.19;;;10.05;100.00
64253;BME280;50592;52.958;-7.470;2023-03-22T14:26:38;97624.84;;;10.05;100.00
64253;BME280;50592;52.958;-7.470;2023-03-22T14:29:14;97623.75;;;10.20;100.00
64253;BME280;50592;52.958;-7.470;2023-03-22T14:32:15;97615.16;;;10.32;100.00
64253;BME280;50592;52.958;-7.470;2023-03-22T14:34:47;97592.03;;;10.27;100.00
64253;BME280;50592;52.958;-7.470;2023-03-22T14:37:22;97584.13;;;10.27;100.00
64253;BME280;50592;52.958;-7.470;2023-03-22T14:39:52;97594.09;;;10.18;100.00
64253;BME280;50592;52.958;-7.470;2023-03-22T14:42:29;97589.47;;;10.13;100.00
64253;BME280;50592;52.958;-7.470;2023-03-22T14:45:00;97587.84;;;10.12;100.00
64253;BME280;50592;52.958;-7.470;2023-03-22T14:47:39;97585.22;;;10.12;100.00
64253;BME280;50592;52.958;-7.470;2023-03-22T14:50:12;97584.19;;;10.13;100.00
64253;BME280;50592;52.958;-7.470;2023-03-22T14:52:45;97561.47;;;10.12;100.00
64253;BME280;50592;52.958;-7.470;2023-03-22T14:55:22;97570.13;;;10.20;100.00
64253;BME280;50592;52.958;-7.470;2023-03-22T14:57:57;97560.34;;;10.27;100.00
64253;BME280;50592;52.958;-7.470;2023-03-22T15:00:28;97557.53;;;10.22;100.00